Aviation Digital Data Service (ADDS)

Output produced by METARs form (0129 UTC 30 September 2016)
found at http://www.aviationweather.gov/adds/metars/
 
KSPI 292330Z 3000/3024 01008KT P6SM VCSH SCT012 BKN040 
     FM300700 36010KT 6SM BR VCSH OVC008 
     FM301700 36012KT 5SM -SHRA BR SCT007 OVC015